Time;durP1;ratioP1;P1;durP2;ratioP2;P2;SDS_P1;SDS_P2;PMS_P1;PMS_P2;Temp;Humidity;BMP_temperature;BMP_pressure;BME280_temperature;BME280_humidity;BME280_pressure;Samples;Min_cycle;Max_cycle;Signal;HPM_P1;HPM_P2
2023/08/15 00:00:00;;;;;;;2.63;1.85;;;;;;;28.52;46.02;98881.25;2081836;28;20041;-52
2023/08/15 00:01:03;;;;;;;2.58;2.10;;;;;;;28.53;45.90;98877.47;2081414;28;20048;-50
2023/08/15 00:02:04;;;;;;;4.68;2.05;;;;;;;28.51;46.04;98880.44;2080529;28;20057;-51
2023/08/15 00:03:06;;;;;;;2.67;1.85;;;;;;;28.51;46.08;98876.91;2084086;28;20337;-52
2023/08/15 00:04:06;;;;;;;5.05;1.80;;;;;;;28.52;45.88;98879.34;2082514;28;20068;-52
2023/08/15 00:05:09;;;;;;;5.80;2.38;;;;;;;28.46;45.91;98872.22;2080330;28;20080;-51
2023/08/15 00:06:10;;;;;;;4.68;1.80;;;;;;;28.46;46.04;98877.69;2080879;28;20077;-50
2023/08/15 00:07:13;;;;;;;3.33;2.15;;;;;;;28.50;45.79;98880.69;2080273;28;20550;-52
2023/08/15 00:08:14;;;;;;;2.75;2.20;;;;;;;28.51;45.96;98876.91;2080509;28;20570;-49
2023/08/15 00:09:15;;;;;;;3.40;2.33;;;;;;;28.49;45.82;98874.44;2081277;28;20048;-49
2023/08/15 00:10:17;;;;;;;3.92;2.47;;;;;;;28.48;45.85;98874.72;2080776;28;20186;-49
2023/08/15 00:11:18;;;;;;;3.75;2.33;;;;;;;28.48;45.82;98874.72;2079468;28;20479;-50
2023/08/15 00:12:19;;;;;;;3.38;2.22;;;;;;;28.47;45.96;98871.16;2079251;28;20053;-49
2023/08/15 00:13:20;;;;;;;5.07;1.80;;;;;;;28.49;45.70;98879.88;2083573;28;20488;-50
2023/08/15 00:14:22;;;;;;;4.00;2.20;;;;;;;28.48;45.86;98874.72;2075574;28;20049;-49
2023/08/15 00:15:23;;;;;;;3.13;2.00;;;;;;;28.45;45.81;98870.59;2073081;28;20084;-48
2023/08/15 00:16:25;;;;;;;5.40;2.33;;;;;;;28.47;45.65;98873.03;2075970;28;20057;-52
2023/08/15 00:17:26;;;;;;;2.45;2.03;;;;;;;28.45;45.93;98867.06;2071983;28;20053;-51
2023/08/15 00:18:27;;;;;;;3.25;2.13;;;;;;;28.43;45.95;98874.66;2074596;28;20445;-51
2023/08/15 00:19:28;;;;;;;4.93;2.40;;;;;;;28.42;45.87;98864.81;2073910;28;20060;-53
2023/08/15 00:20:30;;;;;;;4.22;2.20;;;;;;;28.42;46.01;98871.13;2075468;28;20506;-53
2023/08/15 00:21:31;;;;;;;2.75;2.03;;;;;;;28.39;45.90;98871.63;2081609;28;20053;-52
2023/08/15 00:22:33;;;;;;;5.85;2.78;;;;;;;28.39;46.02;98870.78;2083075;28;20534;-51
2023/08/15 00:23:35;;;;;;;4.70;1.98;;;;;;;28.36;46.07;98868.56;2082260;28;20057;-52
2023/08/15 00:24:36;;;;;;;6.05;2.05;;;;;;;28.37;45.83;98864.78;2076454;28;20079;-50
2023/08/15 00:25:36;;;;;;;3.90;2.40;;;;;;;28.36;45.89;98874.88;2081636;28;20652;-48
2023/08/15 00:26:38;;;;;;;4.35;1.77;;;;;;;28.37;45.80;98872.97;2073868;28;20045;-52
2023/08/15 00:27:39;;;;;;;5.40;2.30;;;;;;;28.37;45.88;98868.31;2071163;28;20077;-50
2023/08/15 00:28:42;;;;;;;5.30;2.17;;;;;;;28.34;45.69;98873.50;2072573;28;20412;-49
2023/08/15 00:29:43;;;;;;;6.53;3.15;;;;;;;28.34;45.75;98868.84;2073159;28;20140;-52
2023/08/15 00:30:44;;;;;;;4.40;2.05;;;;;;;28.36;45.83;98863.13;2074383;28;20057;-48
2023/08/15 00:31:45;;;;;;;2.13;1.77;;;;;;;28.36;45.82;98876.75;2074616;28;20088;-48
2023/08/15 00:32:47;;;;;;;3.53;2.10;;;;;;;28.37;45.67;98873.78;2074374;28;20586;-49
2023/08/15 00:33:48;;;;;;;3.50;2.15;;;;;;;28.36;45.82;98871.31;2077122;28;20052;-48
2023/08/15 00:34:50;;;;;;;4.25;2.22;;;;;;;28.36;45.58;98871.31;2077338;28;20477;-48
2023/08/15 00:35:52;;;;;;;3.95;2.60;;;;;;;28.34;45.75;98863.41;2076953;28;20389;-53
2023/08/15 00:36:53;;;;;;;3.70;1.92;;;;;;;28.35;45.48;98869.66;2075156;28;20432;-52
2023/08/15 00:37:56;;;;;;;3.25;1.95;;;;;;;28.36;45.89;98861.25;2074886;28;20056;-49
2023/08/15 00:39:01;;;;;;;2.47;1.98;;;;;;;28.38;45.64;98864.50;2074327;28;20203;-49
2023/08/15 00:40:04;;;;;;;4.90;2.00;;;;;;;28.37;45.75;98865.59;2075142;28;20127;-50
2023/08/15 00:41:05;;;;;;;4.63;2.08;;;;;;;28.39;45.59;98868.91;2079652;28;20503;-52
2023/08/15 00:42:07;;;;;;;3.15;2.17;;;;;;;28.40;45.45;98866.97;2082616;28;20085;-51
2023/08/15 00:43:09;;;;;;;4.07;2.70;;;;;;;28.39;45.62;98863.44;2074550;28;20134;-53
2023/08/15 00:44:10;;;;;;;3.75;1.92;;;;;;;28.38;45.64;98871.88;2072555;28;21231;-51
2023/08/15 00:45:11;;;;;;;5.32;2.60;;;;;;;28.36;45.65;98871.31;2074771;28;20073;-51
2023/08/15 00:46:17;;;;;;;2.55;2.35;;;;;;;28.36;45.69;98866.69;2075119;28;20492;-52
2023/08/15 00:47:19;;;;;;;3.40;1.90;;;;;;;28.35;45.92;98869.66;2073636;28;20088;-51
2023/08/15 00:48:20;;;;;;;4.18;1.80;;;;;;;28.34;45.72;98870.75;2079660;28;20498;-53
2023/08/15 00:49:22;;;;;;;4.00;2.55;;;;;;;28.29;45.80;98866.91;2081322;28;20090;-49
2023/08/15 00:50:24;;;;;;;4.03;1.92;;;;;;;28.27;45.80;98869.06;2075343;28;20049;-52
2023/08/15 00:51:28;;;;;;;1.98;1.67;;;;;;;28.25;45.76;98871.25;2077819;28;20060;-49
2023/08/15 00:52:28;;;;;;;3.63;2.00;;;;;;;28.21;46.10;98866.56;2075607;28;20037;-52
2023/08/15 00:53:34;;;;;;;3.28;1.73;;;;;;;28.17;46.05;98868.19;2076095;28;20049;-51
2023/08/15 00:54:36;;;;;;;4.78;2.03;;;;;;;28.16;45.85;98861.06;2082496;28;20419;-48
2023/08/15 00:55:39;;;;;;;2.85;1.95;;;;;;;28.18;45.87;98864.38;2082209;28;20136;-51
2023/08/15 00:56:40;;;;;;;5.43;3.13;;;;;;;28.17;45.95;98863.56;2076682;28;20077;-49
2023/08/15 00:57:42;;;;;;;4.43;2.92;;;;;;;28.21;45.94;98864.66;2081256;28;20191;-48
2023/08/15 00:58:44;;;;;;;3.72;2.35;;;;;;;28.21;46.02;98861.13;2079681;28;20497;-49
2023/08/15 00:59:46;;;;;;;4.97;2.03;;;;;;;28.24;45.79;98861.41;2082648;28;20463;-49
2023/08/15 01:00:47;;;;;;;2.22;1.92;;;;;;;28.23;45.86;98865.22;2082470;28;20050;-49
2023/08/15 01:01:50;;;;;;;3.03;2.08;;;;;;;28.26;46.08;98861.16;2080231;28;20469;-49
2023/08/15 01:02:52;;;;;;;5.43;2.05;;;;;;;28.26;45.97;98864.69;2082559;28;20061;-51
2023/08/15 01:03:54;;;;;;;3.40;2.00;;;;;;;28.26;45.82;98856.50;2083296;28;20438;-51
2023/08/15 01:04:55;;;;;;;5.30;1.75;;;;;;;28.25;46.35;98863.06;2080380;28;20047;-52
2023/08/15 01:05:58;;;;;;;3.00;2.25;;;;;;;28.25;46.07;98857.63;2083519;28;20055;-49
2023/08/15 01:06:58;;;;;;;4.90;2.15;;;;;;;28.24;45.91;98858.69;2082439;28;20507;-51
2023/08/15 01:07:59;;;;;;;6.53;2.33;;;;;;;28.26;46.12;98861.97;2081677;28;20049;-49
2023/08/15 01:09:03;;;;;;;6.90;2.45;;;;;;;28.31;45.94;98863.09;2081712;28;20057;-49
2023/08/15 01:10:05;;;;;;;4.10;2.83;;;;;;;28.29;46.07;98856.00;2084145;28;20044;-50
2023/08/15 01:11:06;;;;;;;2.83;2.05;;;;;;;28.28;46.05;98857.09;2083049;28;20073;-49
2023/08/15 01:12:15;;;;;;;2.10;1.70;;;;;;;28.29;46.19;98855.19;2081812;28;20041;-52
2023/08/15 01:13:25;;;;;;;6.05;2.03;;;;;;;28.29;46.04;98861.44;2082286;28;20428;-48
2023/08/15 01:14:33;;;;;;;3.03;2.08;;;;;;;28.28;45.90;98861.72;2080661;28;20474;-48
2023/08/15 01:15:39;;;;;;;3.30;2.28;;;;;;;28.28;46.20;98861.72;2082526;28;20369;-48
2023/08/15 01:16:44;;;;;;;2.75;2.33;;;;;;;28.29;46.38;98864.16;2081768;28;20454;-48
2023/08/15 01:17:54;;;;;;;4.38;2.55;;;;;;;28.28;46.28;98865.28;2082357;28;21696;-49
2023/08/15 01:19:02;;;;;;;3.72;2.50;;;;;;;28.31;46.40;98857.66;2082848;28;20143;-53
2023/08/15 01:20:08;;;;;;;6.80;2.45;;;;;;;28.27;46.45;98852.69;2082287;28;20412;-49
2023/08/15 01:21:13;;;;;;;4.18;1.92;;;;;;;28.25;46.65;98856.75;2081342;28;20248;-50
2023/08/15 01:22:16;;;;;;;4.78;2.20;;;;;;;28.23;46.65;98857.03;2083999;28;20492;-50
2023/08/15 01:23:25;;;;;;;4.30;1.90;;;;;;;28.25;46.90;98856.75;2080788;28;20447;-50
2023/08/15 01:24:28;;;;;;;6.07;1.92;;;;;;;28.27;46.81;98852.69;2081312;28;20045;-50
2023/08/15 01:25:33;;;;;;;3.25;2.47;;;;;;;28.27;46.88;98857.34;2082277;28;20215;-53
2023/08/15 01:26:35;;;;;;;2.88;2.10;;;;;;;28.25;46.71;98849.44;2079809;28;20045;-51
2023/08/15 01:27:37;;;;;;;4.68;2.05;;;;;;;28.27;46.96;98858.16;2082145;28;20059;-49
2023/08/15 01:28:38;;;;;;;2.95;2.13;;;;;;;28.30;46.85;98856.81;2081228;28;20128;-53
2023/08/15 01:29:40;;;;;;;6.07;1.80;;;;;;;28.32;46.91;98853.84;2082629;28;20381;-50
2023/08/15 01:30:46;;;;;;;3.05;2.20;;;;;;;28.32;46.88;98851.91;2080246;28;20344;-51
2023/08/15 01:31:56;;;;;;;5.63;2.53;;;;;;;28.28;46.97;98853.53;2079029;28;20075;-48
2023/08/15 01:33:06;;;;;;;4.82;3.13;;;;;;;28.29;46.99;98850.53;2079118;28;20211;-51
2023/08/15 01:34:13;;;;;;;5.38;2.85;;;;;;;28.28;47.05;98851.63;2080920;28;20048;-49
2023/08/15 01:35:19;;;;;;;3.08;1.90;;;;;;;28.28;47.00;98848.91;2077720;28;20112;-52
2023/08/15 01:36:26;;;;;;;5.78;2.15;;;;;;;28.31;46.99;98852.19;2075547;28;20149;-49
2023/08/15 01:37:29;;;;;;;3.03;2.35;;;;;;;28.31;46.99;98852.19;2072480;28;20057;-51
2023/08/15 01:38:40;;;;;;;6.10;2.33;;;;;;;28.31;47.13;98849.47;2072636;28;20502;-53
2023/08/15 01:39:47;;;;;;;7.32;2.63;;;;;;;28.34;47.25;98846.22;2075202;28;20137;-51
2023/08/15 01:40:53;;;;;;;3.70;2.63;;;;;;;28.35;46.93;98842.38;2081072;28;20064;-49
2023/08/15 01:41:57;;;;;;;5.35;2.45;;;;;;;28.35;47.13;98847.84;2081099;28;20040;-51
2023/08/15 01:43:00;;;;;;;5.60;2.25;;;;;;;28.33;47.17;98845.38;2081330;28;20067;-48
2023/08/15 01:44:03;;;;;;;5.55;2.00;;;;;;;28.32;46.97;98841.00;2081859;28;20053;-49
2023/08/15 01:45:05;;;;;;;3.38;2.25;;;;;;;28.31;47.20;98844.00;2080564;28;20056;-49
2023/08/15 01:46:07;;;;;;;4.03;2.17;;;;;;;28.28;47.19;98843.44;2080663;28;20155;-48
2023/08/15 01:47:09;;;;;;;7.72;3.70;;;;;;;28.31;46.94;98841.28;2081392;28;20048;-48
2023/08/15 01:48:10;;;;;;;3.95;2.63;;;;;;;28.32;46.96;98842.91;2081396;28;20084;-49
2023/08/15 01:49:12;;;;;;;4.10;2.55;;;;;;;28.30;47.02;98840.44;2083421;28;20049;-52
2023/08/15 01:50:13;;;;;;;3.72;2.10;;;;;;;28.26;47.21;98837.44;2082755;28;20449;-48
2023/08/15 01:51:14;;;;;;;4.78;2.38;;;;;;;28.25;47.02;98843.97;2076686;28;20524;-48
2023/08/15 01:52:15;;;;;;;2.85;2.38;;;;;;;28.27;47.01;98836.34;2082027;28;20057;-48
2023/08/15 01:53:17;;;;;;;2.92;2.05;;;;;;;28.27;46.98;98839.06;2081197;28;20397;-48
2023/08/15 01:54:18;;;;;;;3.58;1.98;;;;;;;28.30;46.75;98829.53;2081240;28;20504;-49
2023/08/15 01:55:21;;;;;;;5.38;2.47;;;;;;;28.32;46.67;98840.19;2079269;28;20160;-49
2023/08/15 01:56:22;;;;;;;5.15;2.08;;;;;;;28.34;46.64;98838.84;2080439;28;20496;-49
2023/08/15 01:57:24;;;;;;;5.95;2.80;;;;;;;28.36;46.76;98827.66;2081660;28;20060;-49
2023/08/15 01:58:25;;;;;;;5.38;3.28;;;;;;;28.37;46.56;98835.59;2081213;28;20400;-47
2023/08/15 01:59:25;;;;;;;5.93;2.33;;;;;;;28.42;46.69;98832.09;2082790;28;20044;-51
2023/08/15 02:00:27;;;;;;;3.28;2.33;;;;;;;28.42;46.89;98832.09;2080648;28;20559;-50
2023/08/15 02:01:28;;;;;;;2.28;1.63;;;;;;;28.41;46.67;98831.22;2082660;28;20518;-55
2023/08/15 02:02:30;;;;;;;6.03;2.15;;;;;;;28.41;46.71;98830.41;2078727;28;20125;-53
2023/08/15 02:03:31;;;;;;;3.50;1.83;;;;;;;28.40;46.53;98828.78;2080421;28;20060;-53
2023/08/15 02:04:33;;;;;;;2.33;2.13;;;;;;;28.40;46.82;98824.16;2079421;28;20053;-49
2023/08/15 02:05:35;;;;;;;3.85;1.92;;;;;;;28.41;46.45;98828.50;2079549;28;20360;-51
2023/08/15 02:06:36;;;;;;;3.80;2.05;;;;;;;28.43;46.59;98828.28;2080007;28;20131;-54
2023/08/15 02:07:37;;;;;;;4.07;2.00;;;;;;;28.44;46.49;98822.56;2082639;28;20045;-53
2023/08/15 02:08:39;;;;;;;3.97;2.30;;;;;;;28.45;46.37;98823.41;2081277;28;20303;-50
2023/08/15 02:09:40;;;;;;;4.90;2.85;;;;;;;28.44;46.25;98827.19;2081347;28;20536;-50
2023/08/15 02:10:43;;;;;;;3.20;2.10;;;;;;;28.45;46.09;98832.41;2081733;28;20048;-49
2023/08/15 02:11:44;;;;;;;2.85;1.77;;;;;;;28.43;46.36;98820.09;2080971;28;20140;-53
2023/08/15 02:12:46;;;;;;;3.03;2.22;;;;;;;28.44;46.29;98828.00;2081730;28;20053;-52
2023/08/15 02:13:47;;;;;;;5.57;2.58;;;;;;;28.45;46.05;98821.50;2082011;28;20056;-50
2023/08/15 02:14:49;;;;;;;3.33;2.03;;;;;;;28.46;45.91;98822.31;2080333;28;20096;-49
2023/08/15 02:15:50;;;;;;;4.95;2.97;;;;;;;28.41;46.13;98822.22;2080224;28;20095;-49
2023/08/15 02:16:52;;;;;;;3.30;2.25;;;;;;;28.41;46.31;98824.97;2082300;28;20144;-49
2023/08/15 02:17:53;;;;;;;4.43;2.50;;;;;;;28.39;46.21;98821.66;2081263;28;20237;-52
2023/08/15 02:18:56;;;;;;;5.25;1.63;;;;;;;28.39;46.16;98821.66;2080959;28;20101;-51
2023/08/15 02:19:56;;;;;;;3.92;1.90;;;;;;;28.42;46.65;98821.16;2079945;28;20138;-56
2023/08/15 02:20:58;;;;;;;5.72;2.33;;;;;;;28.43;46.40;98822.84;2082712;28;20119;-51
2023/08/15 02:21:59;;;;;;;5.45;2.40;;;;;;;28.42;46.41;98822.03;2083072;28;20048;-51
2023/08/15 02:23:01;;;;;;;5.75;1.80;;;;;;;28.44;46.25;98821.75;2081681;28;20307;-51
2023/08/15 02:24:03;;;;;;;2.28;1.77;;;;;;;28.43;46.40;98818.19;2079192;28;20389;-53
2023/08/15 02:25:05;;;;;;;5.25;2.50;;;;;;;28.44;46.16;98824.47;2080019;28;20079;-50
2023/08/15 02:26:07;;;;;;;2.72;1.50;;;;;;;28.45;46.46;98820.66;2081388;28;20052;-50
2023/08/15 02:27:09;;;;;;;1.92;1.83;;;;;;;28.46;46.27;98816.84;2080331;28;20413;-50
2023/08/15 02:28:10;;;;;;;2.20;1.85;;;;;;;28.43;46.26;98823.66;2079868;28;20136;-49
2023/08/15 02:29:13;;;;;;;3.80;3.33;;;;;;;28.45;46.36;98826.13;2078340;28;20064;-50
2023/08/15 02:30:13;;;;;;;2.47;2.05;;;;;;;28.46;46.34;98819.56;2079592;28;20128;-53
2023/08/15 02:31:15;;;;;;;4.10;2.72;;;;;;;28.47;46.32;98822.06;2080658;28;20064;-49
2023/08/15 02:32:16;;;;;;;3.85;1.52;;;;;;;28.44;46.24;98822.56;2079559;28;20048;-54
2023/08/15 02:33:18;;;;;;;1.90;1.77;;;;;;;28.46;46.24;98820.38;2079154;28;20123;-49
2023/08/15 02:34:19;;;;;;;3.65;1.83;;;;;;;28.47;46.04;98818.47;2080344;28;20223;-50
2023/08/15 02:35:20;;;;;;;3.60;2.17;;;;;;;28.44;46.26;98816.28;2079051;28;20044;-48
2023/08/15 02:36:22;;;;;;;7.50;2.22;;;;;;;28.43;46.30;98820.91;2079715;28;20083;-52
2023/08/15 02:37:23;;;;;;;5.97;2.58;;;;;;;28.42;46.41;98819.28;2081290;28;20067;-52
2023/08/15 02:38:25;;;;;;;2.67;1.90;;;;;;;28.42;46.31;98815.72;2079123;28;20053;-50
2023/08/15 02:39:25;;;;;;;5.35;2.55;;;;;;;28.44;46.45;98819.00;2081812;28;20091;-51
2023/08/15 02:40:28;;;;;;;4.68;1.83;;;;;;;28.45;46.56;98815.22;2079063;28;20495;-52
2023/08/15 02:41:30;;;;;;;3.92;1.80;;;;;;;28.46;46.57;98817.66;2079434;28;20041;-53
2023/08/15 02:42:32;;;;;;;6.05;2.17;;;;;;;28.47;46.42;98815.75;2077298;28;20306;-52
2023/08/15 02:43:33;;;;;;;3.45;2.00;;;;;;;28.48;46.26;98818.22;2079142;28;20046;-53
2023/08/15 02:44:34;;;;;;;2.78;1.75;;;;;;;28.50;46.06;98816.06;2079339;28;20155;-52
2023/08/15 02:45:35;;;;;;;3.42;2.15;;;;;;;28.44;46.31;98813.56;2080669;28;20049;-50
2023/08/15 02:46:36;;;;;;;4.53;2.33;;;;;;;28.43;46.31;98818.19;2079899;28;20099;-50
2023/08/15 02:47:38;;;;;;;5.32;2.38;;;;;;;28.42;46.24;98818.44;2080089;28;20217;-49
2023/08/15 02:48:39;;;;;;;4.40;1.88;;;;;;;28.43;46.42;98814.66;2079644;28;20049;-51
2023/08/15 02:49:39;;;;;;;3.22;1.83;;;;;;;28.46;46.42;98812.22;2080069;28;20075;-49
2023/08/15 02:50:42;;;;;;;2.00;1.70;;;;;;;28.47;46.55;98813.88;2080682;28;21580;-50
2023/08/15 02:51:43;;;;;;;3.83;2.00;;;;;;;28.48;46.42;98814.69;2081022;28;20056;-50
2023/08/15 02:52:45;;;;;;;4.38;2.40;;;;;;;28.50;46.39;98809.75;2080880;28;20119;-50
2023/08/15 02:53:46;;;;;;;6.15;2.40;;;;;;;28.49;46.44;98806.22;2078388;28;20065;-49
2023/08/15 02:54:47;;;;;;;4.57;2.15;;;;;;;28.47;46.45;98808.41;2077818;28;20150;-50
2023/08/15 02:55:50;;;;;;;2.35;2.00;;;;;;;28.42;46.40;98808.38;2078892;28;20047;-50
2023/08/15 02:56:54;;;;;;;4.00;2.47;;;;;;;28.43;46.51;98803.72;2080139;28;20080;-49
2023/08/15 02:57:55;;;;;;;3.72;2.50;;;;;;;28.46;46.62;98801.28;2071641;28;20045;-53
2023/08/15 02:58:57;;;;;;;5.20;1.98;;;;;;;28.48;46.41;98806.50;2075464;28;20487;-50
2023/08/15 02:59:58;;;;;;;6.10;2.28;;;;;;;28.47;46.47;98810.28;2080066;28;20059;-51
2023/08/15 03:01:00;;;;;;;3.05;2.13;;;;;;;28.48;46.56;98799.13;2080925;28;20045;-50
2023/08/15 03:02:01;;;;;;;3.03;1.90;;;;;;;28.48;46.41;98806.50;2078634;28;20048;-53
2023/08/15 03:03:02;;;;;;;3.40;2.10;;;;;;;28.44;46.34;98800.72;2069829;28;20046;-50
2023/08/15 03:04:05;;;;;;;3.88;2.17;;;;;;;28.40;46.46;98807.78;2073831;28;20049;-51
2023/08/15 03:05:08;;;;;;;3.05;2.20;;;;;;;28.40;46.67;98801.50;2072432;28;20054;-49
2023/08/15 03:06:08;;;;;;;5.78;2.22;;;;;;;28.41;46.60;98803.97;2071237;28;20095;-51
2023/08/15 03:07:10;;;;;;;3.55;1.80;;;;;;;28.42;46.45;98804.81;2072568;28;20053;-52
2023/08/15 03:08:11;;;;;;;3.55;2.20;;;;;;;28.43;46.66;98806.47;2071279;28;20041;-50
2023/08/15 03:09:14;;;;;;;2.33;2.03;;;;;;;28.43;46.43;98801.00;2074588;28;20560;-49
2023/08/15 03:10:15;;;;;;;4.13;2.00;;;;;;;28.42;46.69;98799.34;2073285;28;20049;-52
2023/08/15 03:11:16;;;;;;;4.25;2.20;;;;;;;28.46;46.51;98806.75;2071748;28;20272;-50
2023/08/15 03:12:19;;;;;;;2.22;1.75;;;;;;;28.47;46.54;98802.94;2073714;28;20082;-50
2023/08/15 03:13:20;;;;;;;8.68;2.33;;;;;;;28.47;46.35;98797.50;2073345;28;20464;-51
2023/08/15 03:14:21;;;;;;;3.17;2.35;;;;;;;28.48;46.37;98801.84;2070931;28;20085;-52
2023/08/15 03:15:23;;;;;;;2.95;1.90;;;;;;;28.48;46.30;98801.84;2069771;28;20045;-51
2023/08/15 03:16:25;;;;;;;1.58;1.48;;;;;;;28.50;46.34;98804.31;2073648;28;20416;-52
2023/08/15 03:17:27;;;;;;;2.78;2.22;;;;;;;28.50;46.25;98801.56;2071622;28;20059;-53
2023/08/15 03:18:28;;;;;;;3.95;2.10;;;;;;;28.50;46.41;98801.56;2073623;28;20500;-53
2023/08/15 03:19:30;;;;;;;4.45;2.13;;;;;;;28.48;46.34;98801.84;2069938;28;20037;-53
2023/08/15 03:20:31;;;;;;;3.03;2.65;;;;;;;28.48;46.14;98801.03;2080031;28;20051;-51
2023/08/15 03:21:33;;;;;;;3.42;2.10;;;;;;;28.47;46.09;98808.41;2081150;28;20415;-53
2023/08/15 03:22:34;;;;;;;4.47;1.67;;;;;;;28.46;46.26;98801.28;2080124;28;20050;-49
2023/08/15 03:23:37;;;;;;;4.43;2.20;;;;;;;28.46;46.29;98805.94;2081256;28;20045;-48
2023/08/15 03:24:38;;;;;;;3.47;2.28;;;;;;;28.47;46.19;98807.56;2078097;28;20083;-49
2023/08/15 03:25:39;;;;;;;7.18;2.65;;;;;;;28.48;46.18;98806.50;2071667;28;22090;-47
2023/08/15 03:26:40;;;;;;;2.25;1.85;;;;;;;28.45;46.36;98805.13;2078945;28;20057;-47
2023/08/15 03:27:43;;;;;;;5.05;2.20;;;;;;;28.46;46.37;98812.22;2081300;28;20053;-47
2023/08/15 03:28:44;;;;;;;4.00;2.10;;;;;;;28.45;46.17;98807.03;2080119;28;20060;-49
2023/08/15 03:29:46;;;;;;;4.57;2.05;;;;;;;28.45;46.41;98804.31;2079398;28;20059;-49
2023/08/15 03:30:47;;;;;;;6.88;2.28;;;;;;;28.46;46.24;98812.22;2071387;28;20305;-47
2023/08/15 03:31:49;;;;;;;6.78;2.38;;;;;;;28.46;46.57;98808.66;2075367;28;20387;-48
2023/08/15 03:32:50;;;;;;;2.67;1.85;;;;;;;28.45;46.45;98809.75;2070508;28;20045;-47
2023/08/15 03:33:52;;;;;;;6.32;2.40;;;;;;;28.43;46.64;98810.00;2070283;28;20811;-51
2023/08/15 03:34:53;;;;;;;4.85;2.03;;;;;;;28.44;46.51;98813.56;2070971;28;20068;-49
2023/08/15 03:35:54;;;;;;;3.10;1.98;;;;;;;28.44;46.60;98814.38;2073315;28;20496;-52
2023/08/15 03:36:57;;;;;;;5.38;2.60;;;;;;;28.47;46.23;98818.47;2073605;28;20114;-55
2023/08/15 03:37:58;;;;;;;4.95;2.47;;;;;;;28.46;46.37;98817.66;2079510;28;20074;-51
2023/08/15 03:39:00;;;;;;;5.07;1.98;;;;;;;28.45;46.32;98809.75;2078221;28;20056;-49
2023/08/15 03:40:00;;;;;;;3.20;1.70;;;;;;;28.41;46.46;98814.88;2076289;28;20041;-51
2023/08/15 03:41:02;;;;;;;5.30;2.90;;;;;;;28.41;46.29;98817.59;2078986;28;20056;-50
2023/08/15 03:42:05;;;;;;;1.60;1.50;;;;;;;28.41;46.45;98812.13;2078580;28;20049;-51
2023/08/15 03:43:07;;;;;;;2.63;2.05;;;;;;;28.42;46.40;98813.00;2080237;28;20047;-52
2023/08/15 03:44:09;;;;;;;2.08;1.85;;;;;;;28.42;46.52;98811.09;2077516;28;20053;-50
2023/08/15 03:45:10;;;;;;;2.00;1.80;;;;;;;28.40;46.55;98813.25;2079726;28;20495;-49
2023/08/15 03:46:12;;;;;;;4.18;2.30;;;;;;;28.43;46.51;98812.75;2079531;28;20069;-50
2023/08/15 03:47:13;;;;;;;3.15;2.15;;;;;;;28.45;46.53;98818.75;2071417;28;20045;-50
2023/08/15 03:48:15;;;;;;;4.60;2.33;;;;;;;28.43;46.45;98815.47;2073559;28;20473;-48
2023/08/15 03:49:16;;;;;;;2.17;1.83;;;;;;;28.44;46.25;98813.56;2068518;28;20416;-48
2023/08/15 03:50:18;;;;;;;2.40;1.70;;;;;;;28.42;46.67;98822.03;2069914;28;20060;-50
2023/08/15 03:51:18;;;;;;;4.88;2.50;;;;;;;28.41;46.52;98819.50;2070089;28;20042;-53
2023/08/15 03:52:20;;;;;;;4.85;1.70;;;;;;;28.42;46.55;98826.63;2072014;28;20151;-48
2023/08/15 03:53:21;;;;;;;3.45;2.25;;;;;;;28.41;46.36;98822.22;2078160;28;20132;-50
2023/08/15 03:54:23;;;;;;;2.05;1.70;;;;;;;28.39;46.64;98818.94;2079836;28;20082;-50
2023/08/15 03:55:24;;;;;;;3.38;2.03;;;;;;;28.40;46.56;98821.41;2079463;28;20048;-50
2023/08/15 03:56:26;;;;;;;3.65;1.90;;;;;;;28.44;46.44;98819.00;2081532;28;20095;-51
2023/08/15 03:57:26;;;;;;;3.53;2.28;;;;;;;28.40;46.32;98820.59;2072689;28;20460;-50
2023/08/15 03:58:30;;;;;;;4.15;1.90;;;;;;;28.38;46.42;98826.31;2081360;28;20053;-50
2023/08/15 03:59:30;;;;;;;2.65;2.35;;;;;;;28.39;46.49;98824.41;2080370;28;20056;-50
2023/08/15 04:00:32;;;;;;;4.20;2.08;;;;;;;28.37;46.56;98821.13;2079181;28;20682;-51
2023/08/15 04:01:34;;;;;;;5.95;2.58;;;;;;;28.40;46.59;98828.78;2079551;28;20419;-50
2023/08/15 04:02:35;;;;;;;2.10;1.60;;;;;;;28.39;46.52;98827.13;2080982;28;20133;-50
2023/08/15 04:03:36;;;;;;;3.47;2.03;;;;;;;28.40;46.49;98823.34;2082216;28;20064;-50
2023/08/15 04:04:38;;;;;;;2.08;1.75;;;;;;;28.41;46.45;98830.41;2081187;28;20470;-53
2023/08/15 04:05:39;;;;;;;2.30;2.10;;;;;;;28.40;46.74;98832.34;2079706;28;20152;-48
2023/08/15 04:06:41;;;;;;;5.05;1.88;;;;;;;28.39;46.50;98832.59;2083788;28;20059;-49
2023/08/15 04:07:42;;;;;;;2.65;2.22;;;;;;;28.36;46.42;98825.78;2083416;28;20048;-50
2023/08/15 04:08:45;;;;;;;3.63;2.10;;;;;;;28.37;46.57;98837.50;2083524;28;20106;-51
2023/08/15 04:09:46;;;;;;;3.60;1.98;;;;;;;28.38;46.47;98834.50;2081735;28;20118;-48
2023/08/15 04:10:48;;;;;;;3.05;1.98;;;;;;;28.38;46.54;98825.50;2083764;28;20481;-49
2023/08/15 04:11:49;;;;;;;2.45;1.83;;;;;;;28.37;46.36;98832.03;2079563;28;20064;-52
2023/08/15 04:12:50;;;;;;;3.75;2.25;;;;;;;28.37;46.69;98830.13;2083520;28;20111;-51
2023/08/15 04:13:53;;;;;;;3.83;2.55;;;;;;;28.36;46.62;98844.88;2080252;28;20170;-53
2023/08/15 04:14:55;;;;;;;5.75;2.03;;;;;;;28.35;46.52;98834.22;2080727;28;20072;-53
2023/08/15 04:15:57;;;;;;;4.30;1.98;;;;;;;28.37;46.80;98837.50;2083267;28;20147;-51
2023/08/15 04:16:57;;;;;;;4.13;2.08;;;;;;;28.38;46.71;98828.22;2084258;28;20049;-53
2023/08/15 04:17:59;;;;;;;5.63;2.75;;;;;;;28.38;46.53;98839.13;2080406;28;20156;-50
2023/08/15 04:19:00;;;;;;;2.22;1.75;;;;;;;28.30;46.84;98834.97;2080880;28;20045;-53
2023/08/15 04:20:02;;;;;;;4.35;2.35;;;;;;;28.26;46.73;98836.59;2082977;28;20049;-52
2023/08/15 04:21:03;;;;;;;3.63;2.13;;;;;;;28.25;46.87;98833.06;2082662;28;20531;-51
2023/08/15 04:22:05;;;;;;;5.07;2.30;;;;;;;28.24;46.81;98831.41;2083872;28;20045;-49
2023/08/15 04:23:07;;;;;;;3.00;2.42;;;;;;;28.20;46.83;98834.94;2083722;28;20037;-49
2023/08/15 04:24:09;;;;;;;4.28;2.55;;;;;;;28.23;46.71;98834.41;2080524;28;20443;-50
2023/08/15 04:25:10;;;;;;;4.95;2.08;;;;;;;28.24;46.85;98836.84;2083057;28;20601;-51
2023/08/15 04:26:13;;;;;;;3.92;2.17;;;;;;;28.28;46.89;98835.25;2082094;28;20041;-51
2023/08/15 04:27:13;;;;;;;2.58;2.05;;;;;;;28.28;46.75;98832.53;2082483;28;20101;-49
2023/08/15 04:28:15;;;;;;;2.72;2.28;;;;;;;28.28;46.76;98829.81;2081253;28;20154;-50
2023/08/15 04:29:17;;;;;;;1.88;1.60;;;;;;;28.31;46.90;98835.84;2082461;28;20044;-51
2023/08/15 04:30:20;;;;;;;2.78;2.25;;;;;;;28.29;47.16;98833.34;2081488;28;20211;-50
2023/08/15 04:31:21;;;;;;;5.95;2.28;;;;;;;28.28;47.00;98831.72;2079689;28;20554;-50
2023/08/15 04:32:23;;;;;;;3.83;2.50;;;;;;;28.33;46.82;98830.91;2081277;28;20285;-51
2023/08/15 04:33:24;;;;;;;7.75;2.17;;;;;;;28.34;46.81;98833.38;2082930;28;20803;-50
2023/08/15 04:34:26;;;;;;;4.05;2.10;;;;;;;28.32;46.83;98837.47;2078127;28;20045;-48
2023/08/15 04:35:27;;;;;;;4.32;2.30;;;;;;;28.27;46.74;98835.50;2082623;28;20638;-48
2023/08/15 04:36:29;;;;;;;3.10;1.70;;;;;;;28.30;46.62;98834.97;2079774;28;20049;-49
2023/08/15 04:37:29;;;;;;;5.00;2.45;;;;;;;28.28;46.85;98831.72;2083413;28;20056;-48
2023/08/15 04:38:31;;;;;;;4.32;2.17;;;;;;;28.25;46.78;98833.06;2081564;28;20428;-51
2023/08/15 04:39:32;;;;;;;5.50;2.10;;;;;;;28.26;46.86;98829.25;2082023;28;20049;-59
2023/08/15 04:40:37;;;;;;;6.78;2.47;;;;;;;28.28;46.62;98835.25;2082130;28;20072;-52
2023/08/15 04:41:38;;;;;;;2.80;1.48;;;;;;;28.28;46.82;98832.53;2080923;28;20084;-48
2023/08/15 04:42:42;;;;;;;3.30;1.58;;;;;;;28.30;46.87;98837.72;2083004;28;20041;-49
2023/08/15 04:43:43;;;;;;;2.08;1.58;;;;;;;28.26;46.86;98834.69;2080751;28;20495;-48
2023/08/15 04:44:46;;;;;;;3.30;2.15;;;;;;;28.24;46.87;98828.69;2080910;28;20049;-50
2023/08/15 04:45:47;;;;;;;4.75;2.30;;;;;;;28.17;47.00;98830.81;2073505;28;20502;-50
2023/08/15 04:46:49;;;;;;;7.20;3.00;;;;;;;28.18;47.01;98831.63;2072986;28;20280;-51
2023/08/15 04:47:50;;;;;;;4.47;2.60;;;;;;;28.19;46.97;98828.63;2075909;28;20045;-47
2023/08/15 04:48:52;;;;;;;2.80;2.22;;;;;;;28.20;47.19;98835.75;2082022;28;20495;-51
2023/08/15 04:49:53;;;;;;;4.85;1.98;;;;;;;28.20;47.21;98834.94;2080199;28;20056;-51
2023/08/15 04:50:55;;;;;;;5.35;2.17;;;;;;;28.18;47.35;98839.81;2081438;28;20052;-52
2023/08/15 04:51:56;;;;;;;3.92;2.40;;;;;;;28.17;47.46;98830.81;2083511;28;20499;-49